sensor_id;sensor_type;location;lat;lon;timestamp;pressure;altitude;pressure_sealevel;temperature;humidity
72961;BME280;61141;46.204;19.774;2023-12-07T00:01:31;100203.69;;;3.22;100.00
72961;BME280;61141;46.204;19.774;2023-12-07T00:04:34;100207.41;;;3.00;100.00
72961;BME280;61141;46.204;19.774;2023-12-07T00:07:37;100212.38;;;2.81;100.00
72961;BME280;61141;46.204;19.774;2023-12-07T00:10:40;100212.38;;;2.72;100.00
72961;BME280;61141;46.204;19.774;2023-12-07T00:13:43;100213.00;;;2.95;100.00
72961;BME280;61141;46.204;19.774;2023-12-07T00:16:46;100214.69;;;3.08;100.00
72961;BME280;61141;46.204;19.774;2023-12-07T00:19:50;100220.25;;;3.20;100.00
72961;BME280;61141;46.204;19.774;2023-12-07T00:22:56;100221.22;;;3.07;100.00
72961;BME280;61141;46.204;19.774;2023-12-07T00:25:59;100213.75;;;2.95;100.00
72961;BME280;61141;46.204;19.774;2023-12-07T00:29:02;100218.59;;;2.81;100.00
72961;BME280;61141;46.204;19.774;2023-12-07T00:32:04;100210.13;;;2.91;100.00
72961;BME280;61141;46.204;19.774;2023-12-07T00:35:07;100222.97;;;3.12;100.00
72961;BME280;61141;46.204;19.774;2023-12-07T00:38:10;100223.31;;;3.02;100.00
72961;BME280;61141;46.204;19.774;2023-12-07T00:41:13;100225.34;;;3.13;100.00
72961;BME280;61141;46.204;19.774;2023-12-07T00:44:16;100226.78;;;3.11;100.00
72961;BME280;61141;46.204;19.774;2023-12-07T00:47:19;100219.78;;;3.10;100.00
72961;BME280;61141;46.204;19.774;2023-12-07T00:50:22;100225.38;;;2.96;100.00
72961;BME280;61141;46.204;19.774;2023-12-07T00:53:25;100212.19;;;2.86;100.00
72961;BME280;61141;46.204;19.774;2023-12-07T00:56:27;100225.72;;;2.86;100.00
72961;BME280;61141;46.204;19.774;2023-12-07T00:59:30;100229.41;;;2.81;100.00
72961;BME280;61141;46.204;19.774;2023-12-07T01:02:36;100229.75;;;3.26;100.00
72961;BME280;61141;46.204;19.774;2023-12-07T01:05:39;100227.75;;;3.15;100.00
72961;BME280;61141;46.204;19.774;2023-12-07T01:08:42;100212.63;;;3.05;100.00
72961;BME280;61141;46.204;19.774;2023-12-07T01:11:45;100219.06;;;2.83;100.00
72961;BME280;61141;46.204;19.774;2023-12-07T01:14:48;100213.75;;;2.95;100.00
72961;BME280;61141;46.204;19.774;2023-12-07T01:17:51;100231.38;;;3.19;100.00
72961;BME280;61141;46.204;19.774;2023-12-07T01:20:56;100231.06;;;3.20;100.00
72961;BME280;61141;46.204;19.774;2023-12-07T01:23:59;100230.34;;;2.77;100.00
72961;BME280;61141;46.204;19.774;2023-12-07T01:27:16;100231.31;;;2.89;100.00
72961;BME280;61141;46.204;19.774;2023-12-07T01:30:19;100212.66;;;2.96;100.00
72961;BME280;61141;46.204;19.774;2023-12-07T01:33:22;100229.69;;;2.88;100.00
72961;BME280;61141;46.204;19.774;2023-12-07T01:36:25;100229.63;;;3.23;100.00
72961;BME280;61141;46.204;19.774;2023-12-07T01:39:28;100220.78;;;2.96;100.00
72961;BME280;61141;46.204;19.774;2023-12-07T01:42:31;100222.69;;;2.96;100.00
72961;BME280;61141;46.204;19.774;2023-12-07T01:45:33;100233.37;;;2.84;100.00
72961;BME280;61141;46.204;19.774;2023-12-07T01:48:37;100229.12;;;3.21;100.00
72961;BME280;61141;46.204;19.774;2023-12-07T01:51:39;100223.63;;;3.09;100.00
72961;BME280;61141;46.204;19.774;2023-12-07T01:54:42;100226.44;;;3.21;100.00
72961;BME280;61141;46.204;19.774;2023-12-07T01:57:45;100225.56;;;2.82;100.00
72961;BME280;61141;46.204;19.774;2023-12-07T02:00:49;100224.75;;;2.82;100.00
72961;BME280;61141;46.204;19.774;2023-12-07T02:03:52;100227.16;;;3.01;100.00
72961;BME280;61141;46.204;19.774;2023-12-07T02:06:57;100221.34;;;3.28;100.00
72961;BME280;61141;46.204;19.774;2023-12-07T02:10:02;100223.25;;;3.19;100.00
72961;BME280;61141;46.204;19.774;2023-12-07T02:13:06;100219.13;;;3.13;100.00
72961;BME280;61141;46.204;19.774;2023-12-07T02:16:25;100219.50;;;3.49;100.00
72961;BME280;61141;46.204;19.774;2023-12-07T02:22:46;100226.75;;;3.28;100.00
72961;BME280;61141;46.204;19.774;2023-12-07T02:26:20;100208.62;;;3.20;100.00
72961;BME280;61141;46.204;19.774;2023-12-07T02:29:33;100221.75;;;3.47;100.00
72961;BME280;61141;46.204;19.774;2023-12-07T02:32:40;100213.19;;;3.36;100.00
72961;BME280;61141;46.204;19.774;2023-12-07T02:35:43;100205.59;;;3.21;100.00
72961;BME280;61141;46.204;19.774;2023-12-07T02:38:46;100223.25;;;3.19;100.00
72961;BME280;61141;46.204;19.774;2023-12-07T02:41:51;100226.00;;;3.02;100.00
72961;BME280;61141;46.204;19.774;2023-12-07T02:44:56;100224.44;;;2.92;100.00
72961;BME280;61141;46.204;19.774;2023-12-07T02:47:59;100227.00;;;2.88;100.00
72961;BME280;61141;46.204;19.774;2023-12-07T02:51:02;100229.34;;;2.98;100.00
72961;BME280;61141;46.204;19.774;2023-12-07T02:54:05;100225.88;;;2.98;100.00
72961;BME280;61141;46.204;19.774;2023-12-07T02:57:08;100229.50;;;3.02;100.00
72961;BME280;61141;46.204;19.774;2023-12-07T03:00:11;100229.63;;;3.23;100.00
72961;BME280;61141;46.204;19.774;2023-12-07T03:03:16;100237.97;;;3.01;100.00
72961;BME280;61141;46.204;19.774;2023-12-07T03:06:18;100229.34;;;2.98;100.00
72961;BME280;61141;46.204;19.774;2023-12-07T03:09:22;100235.72;;;3.03;100.00
72961;BME280;61141;46.204;19.774;2023-12-07T03:12:25;100230.66;;;2.92;100.00
72961;BME280;61141;46.204;19.774;2023-12-07T03:15:28;100238.16;;;2.87;100.00
72961;BME280;61141;46.204;19.774;2023-12-07T03:18:30;100235.81;;;3.23;100.00
72961;BME280;61141;46.204;19.774;2023-12-07T03:21:33;100236.72;;;2.81;100.00
72961;BME280;61141;46.204;19.774;2023-12-07T03:24:36;100237.81;;;2.88;100.00
72961;BME280;61141;46.204;19.774;2023-12-07T03:27:39;100242.25;;;3.02;100.00
72961;BME280;61141;46.204;19.774;2023-12-07T03:30:42;100237.91;;;3.18;100.00
72961;BME280;61141;46.204;19.774;2023-12-07T03:33:45;100250.22;;;2.98;100.00
72961;BME280;61141;46.204;19.774;2023-12-07T03:36:48;100247.34;;;2.94;100.00
72961;BME280;61141;46.204;19.774;2023-12-07T03:39:51;100248.59;;;3.14;100.00
72961;BME280;61141;46.204;19.774;2023-12-07T03:42:54;100247.34;;;3.03;100.00
72961;BME280;61141;46.204;19.774;2023-12-07T03:45:58;100254.13;;;3.18;100.00
72961;BME280;61141;46.204;19.774;2023-12-07T03:49:01;100258.00;;;2.91;100.00
72961;BME280;61141;46.204;19.774;2023-12-07T03:52:05;100257.03;;;3.13;100.00
72961;BME280;61141;46.204;19.774;2023-12-07T03:55:08;100259.72;;;3.21;100.00
72961;BME280;61141;46.204;19.774;2023-12-07T03:58:11;100263.59;;;3.03;100.00
72961;BME280;61141;46.204;19.774;2023-12-07T04:01:15;100256.19;;;3.21;100.00
72961;BME280;61141;46.204;19.774;2023-12-07T04:04:19;100265.72;;;3.35;100.00
72961;BME280;61141;46.204;19.774;2023-12-07T04:07:21;100261.91;;;3.36;100.00
72961;BME280;61141;46.204;19.774;2023-12-07T04:10:25;100255.91;;;3.22;100.00
72961;BME280;61141;46.204;19.774;2023-12-07T04:13:28;100255.13;;;3.05;100.00
72961;BME280;61141;46.204;19.774;2023-12-07T04:16:31;100263.84;;;3.19;100.00
72961;BME280;61141;46.204;19.774;2023-12-07T04:19:33;100269.59;;;3.26;100.00
72961;BME280;61141;46.204;19.774;2023-12-07T04:22:37;100274.50;;;3.24;100.00
72961;BME280;61141;46.204;19.774;2023-12-07T04:25:39;100266.28;;;3.12;100.00
72961;BME280;61141;46.204;19.774;2023-12-07T04:28:42;100259.59;;;3.09;100.00
72961;BME280;61141;46.204;19.774;2023-12-07T04:31:45;100271.97;;;3.27;100.00
72961;BME280;61141;46.204;19.774;2023-12-07T04:34:48;100278.47;;;3.26;100.00
72961;BME280;61141;46.204;19.774;2023-12-07T04:37:50;100281.88;;;3.15;100.00
72961;BME280;61141;46.204;19.774;2023-12-07T04:40:53;100281.53;;;3.08;100.00
72961;BME280;61141;46.204;19.774;2023-12-07T04:43:56;100282.66;;;3.07;100.00
72961;BME280;61141;46.204;19.774;2023-12-07T04:46:59;100280.09;;;3.19;100.00
72961;BME280;61141;46.204;19.774;2023-12-07T04:50:02;100289.03;;;3.02;100.00
72961;BME280;61141;46.204;19.774;2023-12-07T04:53:05;100266.47;;;2.98;100.00
72961;BME280;61141;46.204;19.774;2023-12-07T04:56:08;100289.81;;;3.20;100.00
72961;BME280;61141;46.204;19.774;2023-12-07T04:59:11;100286.31;;;3.19;100.00
72961;BME280;61141;46.204;19.774;2023-12-07T05:02:15;100275.03;;;3.09;100.00
72961;BME280;61141;46.204;19.774;2023-12-07T05:05:18;100300.81;;;3.15;100.00
72961;BME280;61141;46.204;19.774;2023-12-07T05:08:21;100302.09;;;3.00;100.00
72961;BME280;61141;46.204;19.774;2023-12-07T05:11:24;100303.00;;;3.30;100.00
72961;BME280;61141;46.204;19.774;2023-12-07T05:14:27;100311.75;;;3.27;100.00
72961;BME280;61141;46.204;19.774;2023-12-07T05:17:30;100307.34;;;3.14;100.00
72961;BME280;61141;46.204;19.774;2023-12-07T05:20:32;100302.84;;;3.18;100.00
72961;BME280;61141;46.204;19.774;2023-12-07T05:23:36;100315.69;;;3.55;100.00
72961;BME280;61141;46.204;19.774;2023-12-07T05:26:42;100325.91;;;3.87;100.00
72961;BME280;61141;46.204;19.774;2023-12-07T05:29:45;100296.34;;;3.19;100.00
72961;BME280;61141;46.204;19.774;2023-12-07T05:32:48;100319.09;;;3.18;100.00
72961;BME280;61141;46.204;19.774;2023-12-07T05:35:51;100320.53;;;3.15;100.00
72961;BME280;61141;46.204;19.774;2023-12-07T05:38:54;100329.44;;;3.24;100.00
72961;BME280;61141;46.204;19.774;2023-12-07T05:41:57;100322.13;;;3.25;100.00
72961;BME280;61141;46.204;19.774;2023-12-07T05:45:00;100325.63;;;3.08;100.00
72961;BME280;61141;46.204;19.774;2023-12-07T05:48:03;100322.91;;;3.34;100.00
72961;BME280;61141;46.204;19.774;2023-12-07T05:51:12;100333.44;;;3.10;100.00
72961;BME280;61141;46.204;19.774;2023-12-07T05:54:16;100336.47;;;3.08;100.00
72961;BME280;61141;46.204;19.774;2023-12-07T05:57:18;100345.53;;;3.04;100.00
72961;BME280;61141;46.204;19.774;2023-12-07T06:00:21;100337.09;;;3.22;100.00
72961;BME280;61141;46.204;19.774;2023-12-07T06:03:24;100335.75;;;3.45;100.00
72961;BME280;61141;46.204;19.774;2023-12-07T06:06:28;100346.47;;;3.25;100.00
72961;BME280;61141;46.204;19.774;2023-12-07T06:09:31;100350.13;;;3.29;100.00
72961;BME280;61141;46.204;19.774;2023-12-07T06:12:34;100351.06;;;3.41;100.00
72961;BME280;61141;46.204;19.774;2023-12-07T06:15:37;100356.16;;;3.34;100.00
72961;BME280;61141;46.204;19.774;2023-12-07T06:18:39;100348.66;;;3.57;100.00
72961;BME280;61141;46.204;19.774;2023-12-07T06:21:43;100363.00;;;3.32;100.00
72961;BME280;61141;46.204;19.774;2023-12-07T06:24:46;100347.97;;;3.77;100.00
72961;BME280;61141;46.204;19.774;2023-12-07T06:27:49;100355.22;;;3.47;100.00
72961;BME280;61141;46.204;19.774;2023-12-07T06:30:52;100365.72;;;3.23;100.00
72961;BME280;61141;46.204;19.774;2023-12-07T06:33:55;100361.28;;;3.19;100.00
72961;BME280;61141;46.204;19.774;2023-12-07T06:36:58;100363.66;;;3.29;100.00
72961;BME280;61141;46.204;19.774;2023-12-07T06:40:01;100365.41;;;3.33;100.00
72961;BME280;61141;46.204;19.774;2023-12-07T06:43:04;100370.38;;;3.95;100.00
72961;BME280;61141;46.204;19.774;2023-12-07T06:46:07;100370.44;;;3.69;100.00
72961;BME280;61141;46.204;19.774;2023-12-07T06:49:09;100371.00;;;4.00;100.00
72961;BME280;61141;46.204;19.774;2023-12-07T06:52:15;100357.94;;;3.39;100.00
72961;BME280;61141;46.204;19.774;2023-12-07T06:55:18;100363.28;;;3.65;100.00
72961;BME280;61141;46.204;19.774;2023-12-07T06:58:22;100370.31;;;3.57;100.00
72961;BME280;61141;46.204;19.774;2023-12-07T07:01:25;100378.12;;;3.50;100.00
72961;BME280;61141;46.204;19.774;2023-12-07T07:04:28;100379.09;;;3.45;100.00
72961;BME280;61141;46.204;19.774;2023-12-07T07:07:32;100379.06;;;3.54;100.00
72961;BME280;61141;46.204;19.774;2023-12-07T07:10:35;100388.78;;;3.55;100.00
72961;BME280;61141;46.204;19.774;2023-12-07T07:13:38;100387.16;;;3.71;100.00
72961;BME280;61141;46.204;19.774;2023-12-07T07:16:42;100386.34;;;3.79;100.00
72961;BME280;61141;46.204;19.774;2023-12-07T07:19:44;100383.34;;;3.72;100.00
72961;BME280;61141;46.204;19.774;2023-12-07T07:22:48;100370.62;;;3.64;100.00
72961;BME280;61141;46.204;19.774;2023-12-07T07:25:50;100375.22;;;3.81;100.00
72961;BME280;61141;46.204;19.774;2023-12-07T07:28:54;100382.06;;;3.78;100.00
72961;BME280;61141;46.204;19.774;2023-12-07T07:31:58;100383.22;;;4.06;100.00
72961;BME280;61141;46.204;19.774;2023-12-07T07:35:01;100402.91;;;3.95;100.00
72961;BME280;61141;46.204;19.774;2023-12-07T07:38:04;100388.66;;;4.06;100.00
72961;BME280;61141;46.204;19.774;2023-12-07T07:41:07;100392.38;;;3.93;100.00
72961;BME280;61141;46.204;19.774;2023-12-07T07:44:10;100391.91;;;3.91;100.00
72961;BME280;61141;46.204;19.774;2023-12-07T07:47:13;100383.13;;;3.94;100.00
72961;BME280;61141;46.204;19.774;2023-12-07T07:50:16;100389.03;;;3.88;100.00
72961;BME280;61141;46.204;19.774;2023-12-07T07:53:20;100394.34;;;4.22;100.00
72961;BME280;61141;46.204;19.774;2023-12-07T07:56:23;100393.50;;;4.30;100.00
72961;BME280;61141;46.204;19.774;2023-12-07T07:59:26;100391.03;;;4.46;100.00
72961;BME280;61141;46.204;19.774;2023-12-07T08:02:28;100392.44;;;4.52;100.00
72961;BME280;61141;46.204;19.774;2023-12-07T08:05:31;100399.63;;;4.19;100.00
72961;BME280;61141;46.204;19.774;2023-12-07T08:08:35;100399.72;;;4.60;100.00
72961;BME280;61141;46.204;19.774;2023-12-07T08:11:38;100396.97;;;4.39;100.00
72961;BME280;61141;46.204;19.774;2023-12-07T08:14:41;100411.81;;;4.71;100.00
72961;BME280;61141;46.204;19.774;2023-12-07T08:17:46;100395.41;;;4.88;99.69
72961;BME280;61141;46.204;19.774;2023-12-07T08:20:49;100411.94;;;4.07;100.00
72961;BME280;61141;46.204;19.774;2023-12-07T08:23:52;100412.56;;;4.42;100.00
72961;BME280;61141;46.204;19.774;2023-12-07T08:26:55;100406.28;;;4.59;100.00
72961;BME280;61141;46.204;19.774;2023-12-07T08:29:58;100399.94;;;4.55;100.00
72961;BME280;61141;46.204;19.774;2023-12-07T08:33:00;100416.66;;;4.57;100.00
72961;BME280;61141;46.204;19.774;2023-12-07T08:36:04;100419.19;;;5.32;99.72
72961;BME280;61141;46.204;19.774;2023-12-07T08:39:06;100419.97;;;5.33;98.92
72961;BME280;61141;46.204;19.774;2023-12-07T08:42:12;100401.59;;;4.68;98.74
72961;BME280;61141;46.204;19.774;2023-12-07T08:45:15;100414.22;;;4.64;99.32
72961;BME280;61141;46.204;19.774;2023-12-07T08:48:21;100420.19;;;5.07;99.23
72961;BME280;61141;46.204;19.774;2023-12-07T08:51:24;100413.72;;;4.70;99.35
72961;BME280;61141;46.204;19.774;2023-12-07T08:54:27;100418.62;;;4.77;100.00
72961;BME280;61141;46.204;19.774;2023-12-07T08:57:29;100431.66;;;4.84;100.00
72961;BME280;61141;46.204;19.774;2023-12-07T09:00:33;100432.31;;;4.51;100.00
72961;BME280;61141;46.204;19.774;2023-12-07T09:03:35;100435.03;;;4.51;100.00
72961;BME280;61141;46.204;19.774;2023-12-07T09:06:40;100437.06;;;4.63;100.00
72961;BME280;61141;46.204;19.774;2023-12-07T09:09:43;100432.16;;;4.48;100.00
72961;BME280;61141;46.204;19.774;2023-12-07T09:12:50;100430.22;;;4.28;100.00
72961;BME280;61141;46.204;19.774;2023-12-07T09:15:52;100446.06;;;4.08;100.00
72961;BME280;61141;46.204;19.774;2023-12-07T09:18:56;100439.72;;;4.34;100.00
72961;BME280;61141;46.204;19.774;2023-12-07T09:21:59;100445.91;;;4.05;100.00
72961;BME280;61141;46.204;19.774;2023-12-07T09:25:02;100443.78;;;4.19;100.00
72961;BME280;61141;46.204;19.774;2023-12-07T09:28:05;100439.00;;;4.16;100.00
72961;BME280;61141;46.204;19.774;2023-12-07T09:31:07;100437.66;;;4.68;100.00
72961;BME280;61141;46.204;19.774;2023-12-07T09:34:10;100431.59;;;4.34;100.00
72961;BME280;61141;46.204;19.774;2023-12-07T09:37:15;100435.62;;;4.28;100.00
72961;BME280;61141;46.204;19.774;2023-12-07T09:40:18;100426.84;;;4.31;100.00
72961;BME280;61141;46.204;19.774;2023-12-07T09:43:23;100438.94;;;4.42;100.00
72961;BME280;61141;46.204;19.774;2023-12-07T09:46:26;100430.63;;;4.38;100.00
72961;BME280;61141;46.204;19.774;2023-12-07T09:49:31;100435.84;;;4.52;100.00
72961;BME280;61141;46.204;19.774;2023-12-07T09:52:35;100433.34;;;4.38;100.00
72961;BME280;61141;46.204;19.774;2023-12-07T09:55:38;100437.37;;;4.24;100.00
72961;BME280;61141;46.204;19.774;2023-12-07T09:58:42;100435.66;;;4.57;100.00
72961;BME280;61141;46.204;19.774;2023-12-07T10:01:45;100427.63;;;4.69;100.00
72961;BME280;61141;46.204;19.774;2023-12-07T10:04:49;100440.91;;;4.24;100.00
72961;BME280;61141;46.204;19.774;2023-12-07T10:08:05;100408.59;;;4.40;100.00
72961;BME280;61141;46.204;19.774;2023-12-07T10:11:11;100438.16;;;4.62;100.00
72961;BME280;61141;46.204;19.774;2023-12-07T10:14:15;100428.59;;;5.14;98.65
72961;BME280;61141;46.204;19.774;2023-12-07T10:17:18;100440.69;;;4.67;98.85
72961;BME280;61141;46.204;19.774;2023-12-07T10:20:22;100429.78;;;5.05;99.71
72961;BME280;61141;46.204;19.774;2023-12-07T10:23:29;100432.25;;;4.68;99.90
72961;BME280;61141;46.204;19.774;2023-12-07T10:26:34;100436.28;;;4.25;100.00
72961;BME280;61141;46.204;19.774;2023-12-07T10:29:40;100436.34;;;4.45;100.00
72961;BME280;61141;46.204;19.774;2023-12-07T10:32:43;100437.31;;;4.41;100.00
72961;BME280;61141;46.204;19.774;2023-12-07T10:35:46;100441.09;;;4.10;100.00
72961;BME280;61141;46.204;19.774;2023-12-07T10:38:52;100429.25;;;4.24;100.00
72961;BME280;61141;46.204;19.774;2023-12-07T10:41:59;100441.59;;;4.04;100.00
72961;BME280;61141;46.204;19.774;2023-12-07T10:45:06;100442.31;;;4.30;100.00
72961;BME280;61141;46.204;19.774;2023-12-07T10:48:10;100431.25;;;4.44;100.00
72961;BME280;61141;46.204;19.774;2023-12-07T10:51:42;100442.91;;;3.89;100.00
72961;BME280;61141;46.204;19.774;2023-12-07T10:54:52;100441.56;;;4.12;100.00
72961;BME280;61141;46.204;19.774;2023-12-07T10:58:00;100440.87;;;3.69;100.00
72961;BME280;61141;46.204;19.774;2023-12-07T11:01:04;100439.09;;;4.37;100.00
72961;BME280;61141;46.204;19.774;2023-12-07T11:04:13;100443.87;;;4.31;100.00
72961;BME280;61141;46.204;19.774;2023-12-07T11:07:18;100448.91;;;4.58;100.00
72961;BME280;61141;46.204;19.774;2023-12-07T11:11:04;100436.19;;;3.95;100.00
72961;BME280;61141;46.204;19.774;2023-12-07T11:14:09;100450.09;;;3.60;100.00
72961;BME280;61141;46.204;19.774;2023-12-07T11:17:15;100461.56;;;3.91;100.00
72961;BME280;61141;46.204;19.774;2023-12-07T11:20:20;100448.62;;;4.43;100.00
72961;BME280;61141;46.204;19.774;2023-12-07T11:23:23;100444.19;;;3.92;100.00
72961;BME280;61141;46.204;19.774;2023-12-07T11:26:26;100450.28;;;3.63;100.00
72961;BME280;61141;46.204;19.774;2023-12-07T11:29:30;100450.91;;;3.43;100.00
72961;BME280;61141;46.204;19.774;2023-12-07T11:32:33;100448.06;;;3.39;100.00
72961;BME280;61141;46.204;19.774;2023-12-07T11:39:15;100448.44;;;4.10;100.00
72961;BME280;61141;46.204;19.774;2023-12-07T11:42:28;100450.53;;;4.04;100.00
72961;BME280;61141;46.204;19.774;2023-12-07T11:45:47;100451.97;;;4.48;100.00
72961;BME280;61141;46.204;19.774;2023-12-07T11:48:55;100453.16;;;4.68;100.00
72961;BME280;61141;46.204;19.774;2023-12-07T11:52:00;100451.44;;;4.17;100.00
72961;BME280;61141;46.204;19.774;2023-12-07T11:55:03;100452.31;;;4.76;100.00
72961;BME280;61141;46.204;19.774;2023-12-07T11:58:12;100450.94;;;4.61;100.00
72961;BME280;61141;46.204;19.774;2023-12-07T12:01:16;100448.31;;;4.44;100.00
72961;BME280;61141;46.204;19.774;2023-12-07T12:04:21;100452.19;;;4.35;100.00
72961;BME280;61141;46.204;19.774;2023-12-07T12:07:24;100441.06;;;4.28;100.00
72961;BME280;61141;46.204;19.774;2023-12-07T12:10:29;100449.84;;;4.25;100.00
72961;BME280;61141;46.204;19.774;2023-12-07T12:13:35;100461.13;;;4.35;100.00
72961;BME280;61141;46.204;19.774;2023-12-07T12:16:39;100467.31;;;3.89;100.00
72961;BME280;61141;46.204;19.774;2023-12-07T12:19:42;100457.53;;;4.52;100.00
72961;BME280;61141;46.204;19.774;2023-12-07T12:22:45;100463.66;;;3.68;100.00
72961;BME280;61141;46.204;19.774;2023-12-07T12:25:48;100461.09;;;4.44;100.00
72961;BME280;61141;46.204;19.774;2023-12-07T12:28:52;100457.28;;;4.95;100.00
72961;BME280;61141;46.204;19.774;2023-12-07T12:31:55;100459.50;;;4.34;100.00
72961;BME280;61141;46.204;19.774;2023-12-07T12:34:58;100457.47;;;4.23;100.00
72961;BME280;61141;46.204;19.774;2023-12-07T12:38:01;100460.44;;;4.00;100.00
72961;BME280;61141;46.204;19.774;2023-12-07T12:41:04;100470.16;;;3.93;100.00
72961;BME280;61141;46.204;19.774;2023-12-07T12:44:07;100468.22;;;4.10;100.00
72961;BME280;61141;46.204;19.774;2023-12-07T12:47:17;100475.25;;;4.03;100.00
72961;BME280;61141;46.204;19.774;2023-12-07T12:50:39;100470.56;;;4.21;100.00
72961;BME280;61141;46.204;19.774;2023-12-07T12:53:46;100469.84;;;4.49;100.00
72961;BME280;61141;46.204;19.774;2023-12-07T12:56:54;100467.31;;;5.03;100.00
72961;BME280;61141;46.204;19.774;2023-12-07T12:59:57;100474.87;;;4.59;100.00
72961;BME280;61141;46.204;19.774;2023-12-07T13:03:04;100473.16;;;4.55;100.00
72961;BME280;61141;46.204;19.774;2023-12-07T13:06:07;100485.75;;;4.04;100.00
72961;BME280;61141;46.204;19.774;2023-12-07T13:09:10;100485.53;;;4.27;100.00
72961;BME280;61141;46.204;19.774;2023-12-07T13:12:13;100483.34;;;4.11;100.00
72961;BME280;61141;46.204;19.774;2023-12-07T13:15:16;100479.16;;;4.23;100.00
72961;BME280;61141;46.204;19.774;2023-12-07T13:18:19;100488.47;;;4.04;100.00
72961;BME280;61141;46.204;19.774;2023-12-07T13:21:21;100481.69;;;4.36;100.00
72961;BME280;61141;46.204;19.774;2023-12-07T13:24:25;100485.69;;;4.30;100.00
72961;BME280;61141;46.204;19.774;2023-12-07T13:27:28;100497.06;;;3.98;100.00
72961;BME280;61141;46.204;19.774;2023-12-07T13:30:31;100487.41;;;5.10;100.00
72961;BME280;61141;46.204;19.774;2023-12-07T13:33:37;100495.19;;;4.45;100.00
72961;BME280;61141;46.204;19.774;2023-12-07T13:36:55;100504.63;;;4.47;100.00
72961;BME280;61141;46.204;19.774;2023-12-07T13:39:58;100508.84;;;4.28;100.00
72961;BME280;61141;46.204;19.774;2023-12-07T13:43:02;100508.06;;;5.23;100.00
72961;BME280;61141;46.204;19.774;2023-12-07T13:46:05;100507.50;;;4.34;100.00
72961;BME280;61141;46.204;19.774;2023-12-07T13:49:08;100517.19;;;3.88;100.00
72961;BME280;61141;46.204;19.774;2023-12-07T13:52:20;100523.22;;;4.20;100.00
72961;BME280;61141;46.204;19.774;2023-12-07T13:55:23;100520.38;;;3.73;100.00
72961;BME280;61141;46.204;19.774;2023-12-07T13:58:26;100528.50;;;3.82;100.00
72961;BME280;61141;46.204;19.774;2023-12-07T14:01:29;100533.09;;;3.81;100.00
72961;BME280;61141;46.204;19.774;2023-12-07T14:04:34;100535.84;;;3.73;100.00
72961;BME280;61141;46.204;19.774;2023-12-07T14:07:38;100539.00;;;3.66;100.00
72961;BME280;61141;46.204;19.774;2023-12-07T14:10:41;100536.63;;;3.56;100.00
72961;BME280;61141;46.204;19.774;2023-12-07T14:13:44;100537.38;;;3.48;100.00
72961;BME280;61141;46.204;19.774;2023-12-07T14:16:51;100542.03;;;3.82;100.00
72961;BME280;61141;46.204;19.774;2023-12-07T14:19:57;100547.00;;;3.97;100.00
72961;BME280;61141;46.204;19.774;2023-12-07T14:23:21;100550.47;;;3.46;100.00
72961;BME280;61141;46.204;19.774;2023-12-07T14:26:23;100558.13;;;4.12;100.00
72961;BME280;61141;46.204;19.774;2023-12-07T14:29:26;100567.69;;;4.27;100.00
72961;BME280;61141;46.204;19.774;2023-12-07T14:32:29;100564.69;;;3.77;100.00
72961;BME280;61141;46.204;19.774;2023-12-07T14:35:32;100567.53;;;3.64;100.00
72961;BME280;61141;46.204;19.774;2023-12-07T14:38:35;100572.72;;;3.34;100.00
72961;BME280;61141;46.204;19.774;2023-12-07T14:41:38;100569.47;;;3.80;100.00
72961;BME280;61141;46.204;19.774;2023-12-07T14:44:43;100575.03;;;3.67;100.00
72961;BME280;61141;46.204;19.774;2023-12-07T14:47:46;100576.63;;;3.85;100.00
72961;BME280;61141;46.204;19.774;2023-12-07T14:50:49;100574.06;;;3.80;100.00
72961;BME280;61141;46.204;19.774;2023-12-07T14:53:54;100569.44;;;3.72;100.00
72961;BME280;61141;46.204;19.774;2023-12-07T14:56:57;100553.78;;;3.43;100.00
72961;BME280;61141;46.204;19.774;2023-12-07T15:00:01;100582.97;;;3.54;100.00
72961;BME280;61141;46.204;19.774;2023-12-07T15:03:07;100592.72;;;3.90;100.00
72961;BME280;61141;46.204;19.774;2023-12-07T15:06:10;100586.28;;;3.43;100.00
72961;BME280;61141;46.204;19.774;2023-12-07T15:09:12;100576.78;;;3.88;100.00
72961;BME280;61141;46.204;19.774;2023-12-07T15:12:15;100587.44;;;3.68;100.00
72961;BME280;61141;46.204;19.774;2023-12-07T15:15:21;100594.56;;;3.38;100.00
72961;BME280;61141;46.204;19.774;2023-12-07T15:18:24;100594.44;;;3.51;100.00
72961;BME280;61141;46.204;19.774;2023-12-07T15:21:27;100593.72;;;3.29;100.00
72961;BME280;61141;46.204;19.774;2023-12-07T15:24:31;100601.50;;;3.78;100.00
72961;BME280;61141;46.204;19.774;2023-12-07T15:27:38;100577.06;;;3.44;100.00
72961;BME280;61141;46.204;19.774;2023-12-07T15:30:41;100592.81;;;3.33;100.00
72961;BME280;61141;46.204;19.774;2023-12-07T15:33:43;100599.34;;;2.93;100.00
72961;BME280;61141;46.204;19.774;2023-12-07T15:36:46;100607.25;;;3.29;100.00
72961;BME280;61141;46.204;19.774;2023-12-07T15:39:49;100609.41;;;3.49;100.00
72961;BME280;61141;46.204;19.774;2023-12-07T15:42:53;100610.25;;;3.75;100.00
72961;BME280;61141;46.204;19.774;2023-12-07T15:45:56;100606.00;;;3.35;100.00
72961;BME280;61141;46.204;19.774;2023-12-07T15:48:59;100599.22;;;3.54;100.00
72961;BME280;61141;46.204;19.774;2023-12-07T15:52:03;100621.06;;;3.58;100.00
72961;BME280;61141;46.204;19.774;2023-12-07T15:55:06;100618.12;;;3.37;100.00
72961;BME280;61141;46.204;19.774;2023-12-07T15:58:09;100620.84;;;3.37;100.00